Columbus Air Force Base
KCBM : now visible

Airfield :











YOU CAN JOIN US ON...

 
LOGIN :

Register | Disclaimer

   EN    FR    IT 

 









Legend :    VFR   Marginal VFR   IFR   Intensive IFR   Very Intensive IFR
Visi :
Ceiling :
>= 8 km
>= 3000ft
5 to 8 km
1000 to 3000 ft
1500m to 5 km
500 to 1000 ft
800 to 1500m
200 to 500 ft
< 800m
< 200 ft
Symbols :   Thunderstorms  Fog  Heavy snow  Heavy precipitations  Wind > 20 kt







- Airport Elevation : 219 ft


KCBM - Columbus Air Force Base

CURRENT METAR :
  • 260301Z AUTO 13008KT 10SM FEW019 SCT029 23/22 A2993 RMK AO2 RAE01 SLP136

EXPIRED METARs :
  • 260256Z AUTO 14007KT 10SM -RA FEW018 SCT029 23/23 A2993 RMK AO2 RAE05RAB12 SLP136 P0004 60007 T02330226 50011
  • 260227Z AUTO 15004KT 10SM -RA SCT005 OVC028 23/22 A2993 RMK AO2 RAE05RAB12 CIG 005V028 SLP136
  • 260212Z AUTO 14004KT 10SM -RA BKN006 BKN029 23/22 A2994 RMK AO2 RAE05RAB12 SLP140
  • 260156Z AUTO 14005KT 10SM -RA FEW008 23/22 A2993 RMK AO2 RAB54 SLP136 P0000 T02280221
  • 260056Z AUTO 18004KT 10SM CLR 23/22 A2991 RMK AO2 RAE2359 SLP130 P0003 T02270218

TAF AMD TAF KCBM
Valid from the 25 at 22:00 until the 26 at 21:00 UTC


252200Z 2522/2621 16008KT 8000 -SHRA OVC016 QNH2993INS
TEMPO 2522/2524 VRB12G20KT 6000 -TSRA BKN025CB
BECMG 2523/2524 VRB06KT 9999 NSW BKN020 QNH2987INS
TEMPO 2601/2612 VRB06KT 8000 BR BKN008
BECMG 2616/2617 13006KT 8000 -SHRA SCT020 QNH2987INS TX33/2522Z TN23/2611Z LAST NO AMDS AFT 2522 NEXT 2609
No reported NOTAMs for that airfield.



MET'MAP, your aeronautical weather chart ! - Copyright ORBIFLY December 2007 - Disclaimer

ORBIFLY MET'MAP TEAM :

Programming & Development : Alexandra Zaïnal
Concept & Development : Baudouin d'Aumeries
Co-Development & Prog : Marc-Olivier Méhu
Technical & hardware support : Manuel Goepfert

Contact : metmap@orbifly.com




SOURCES & CREDITS :

   NOAA       Earth
Advisory